Time;durP1;ratioP1;P1;durP2;ratioP2;P2;SDS_P1;SDS_P2;PMS_P1;PMS_P2;Temp;Humidity;BMP_temperature;BMP_pressure;BME280_temperature;BME280_humidity;BME280_pressure;Samples;Min_cycle;Max_cycle;Signal;HPM_P1;HPM_P2
2023/01/24 00:01:44;;;;;;;22.27;17.57;;;;;;;;;;5073108;28;20965;-75
2023/01/24 00:04:11;;;;;;;20.57;16.60;;;;;;;;;;5072578;28;20451;-75
2023/01/24 00:06:38;;;;;;;20.53;16.63;;;;;;;;;;5072437;28;20513;-75
2023/01/24 00:09:05;;;;;;;22.57;17.80;;;;;;;;;;5072215;28;20487;-75
2023/01/24 00:11:33;;;;;;;20.50;17.03;;;;;;;;;;5072050;28;20444;-75
2023/01/24 00:14:00;;;;;;;22.47;17.63;;;;;;;;;;5071690;28;20443;-75
2023/01/24 00:16:28;;;;;;;22.47;17.57;;;;;;;;;;5056830;28;20448;-74
2023/01/24 00:18:55;;;;;;;20.80;17.30;;;;;;;;;;5051815;28;20468;-76
2023/01/24 00:21:23;;;;;;;19.97;16.70;;;;;;;;;;5051619;28;20886;-75
2023/01/24 00:23:51;;;;;;;20.20;15.80;;;;;;;;;;5051301;28;20506;-75
2023/01/24 00:26:19;;;;;;;19.83;17.00;;;;;;;;;;5051478;28;20460;-75
2023/01/24 00:28:47;;;;;;;22.50;17.27;;;;;;;;;;5050354;28;20948;-75
2023/01/24 00:31:14;;;;;;;23.67;18.50;;;;;;;;;;5051348;28;20479;-74
2023/01/24 00:33:42;;;;;;;21.00;16.50;;;;;;;;;;5051237;28;20452;-76
2023/01/24 00:36:10;;;;;;;23.03;17.77;;;;;;;;;;5051177;28;20448;-76
2023/01/24 00:38:37;;;;;;;21.93;16.47;;;;;;;;;;5051002;28;20476;-75
2023/01/24 00:41:04;;;;;;;19.83;16.10;;;;;;;;;;5050635;28;20480;-75
2023/01/24 00:43:31;;;;;;;21.13;16.73;;;;;;;;;;5050738;28;20441;-75
2023/01/24 00:45:58;;;;;;;19.13;15.60;;;;;;;;;;5050722;28;20441;-75
2023/01/24 00:48:26;;;;;;;22.20;17.03;;;;;;;;;;5051010;28;20453;-75
2023/01/24 00:50:54;;;;;;;19.37;16.23;;;;;;;;;;5050954;28;20483;-75
2023/01/24 00:53:21;;;;;;;19.80;15.20;;;;;;;;;;5050812;28;20793;-75
2023/01/24 00:55:50;;;;;;;19.80;16.27;;;;;;;;;;5050452;28;20457;-75
2023/01/24 00:58:17;;;;;;;20.60;15.33;;;;;;;;;;5050833;28;20446;-75
2023/01/24 01:00:45;;;;;;;20.40;15.60;;;;;;;;;;5050432;28;20487;-76
2023/01/24 01:03:13;;;;;;;19.33;15.47;;;;;;;;;;5050265;28;20455;-75
2023/01/24 01:05:40;;;;;;;17.30;15.00;;;;;;;;;;5050661;28;20952;-75
2023/01/24 01:08:09;;;;;;;17.87;14.47;;;;;;;;;;5050340;28;20871;-75
2023/01/24 01:10:36;;;;;;;23.83;17.53;;;;;;;;;;5050151;28;20549;-75
2023/01/24 01:13:04;;;;;;;19.10;15.67;;;;;;;;;;5050252;28;20450;-75
2023/01/24 01:15:31;;;;;;;18.20;14.67;;;;;;;;;;5057455;28;20818;-75
2023/01/24 01:17:59;;;;;;;18.30;15.33;;;;;;;;;;5070507;28;20952;-75
2023/01/24 01:20:27;;;;;;;20.27;15.27;;;;;;;;;;5070096;28;20483;-75
2023/01/24 01:22:54;;;;;;;19.77;16.00;;;;;;;;;;5070117;28;20478;-75
2023/01/24 01:25:23;;;;;;;19.20;15.70;;;;;;;;;;5070428;28;20451;-75
2023/01/24 01:27:50;;;;;;;16.73;13.87;;;;;;;;;;5070338;28;20509;-75
2023/01/24 01:30:17;;;;;;;21.13;17.20;;;;;;;;;;5070322;28;21309;-75
2023/01/24 01:32:44;;;;;;;20.63;17.20;;;;;;;;;;5069824;28;20525;-75
2023/01/24 01:35:11;;;;;;;19.87;15.97;;;;;;;;;;5069764;28;20447;-74
2023/01/24 01:37:38;;;;;;;21.80;16.80;;;;;;;;;;5069970;28;20463;-75
2023/01/24 01:40:05;;;;;;;21.40;16.50;;;;;;;;;;5068942;28;20479;-75
2023/01/24 01:42:45;;;;;;;18.40;15.17;;;;;;;;;;5069912;28;20820;-76
2023/01/24 01:45:32;;;;;;;22.13;15.83;;;;;;;;;;5069757;28;20446;-74
2023/01/24 01:48:00;;;;;;;21.93;16.10;;;;;;;;;;5070553;28;20445;-75
2023/01/24 01:50:29;;;;;;;23.37;16.10;;;;;;;;;;5070373;28;20843;-74
2023/01/24 01:52:57;;;;;;;18.93;15.40;;;;;;;;;;5069894;28;20893;-75
2023/01/24 01:55:26;;;;;;;20.30;16.50;;;;;;;;;;5069895;28;20449;-75
2023/01/24 01:57:55;;;;;;;20.57;17.20;;;;;;;;;;5067102;28;20439;-74
2023/01/24 02:00:23;;;;;;;21.00;17.37;;;;;;;;;;5069867;28;20483;-75
2023/01/24 02:02:51;;;;;;;20.20;15.43;;;;;;;;;;5070088;28;20444;-74
2023/01/24 02:05:21;;;;;;;19.07;15.37;;;;;;;;;;5070347;28;20449;-74
2023/01/24 02:07:52;;;;;;;18.63;14.17;;;;;;;;;;5070202;28;20460;-75
2023/01/24 02:10:19;;;;;;;19.00;16.20;;;;;;;;;;5070821;28;20456;-76
2023/01/24 02:12:47;;;;;;;18.77;15.40;;;;;;;;;;5070032;28;20471;-75
2023/01/24 02:18:01;;;;;;;19.93;16.43;;;;;;;;;;5050483;28;20475;-75
2023/01/24 02:20:34;;;;;;;21.40;15.90;;;;;;;;;;5050448;28;20477;-75
2023/01/24 02:23:06;;;;;;;23.23;16.53;;;;;;;;;;5049486;28;20453;-74
2023/01/24 02:25:38;;;;;;;21.60;16.70;;;;;;;;;;5050028;28;20447;-75
2023/01/24 02:28:07;;;;;;;19.70;16.20;;;;;;;;;;5055317;28;20506;-75
2023/01/24 02:30:34;;;;;;;19.57;15.50;;;;;;;;;;5061426;28;20983;-73
2023/01/24 02:33:01;;;;;;;20.93;16.13;;;;;;;;;;5081220;28;20955;-75
2023/01/24 02:35:29;;;;;;;21.37;15.80;;;;;;;;;;5076961;28;20450;-74
2023/01/24 02:37:57;;;;;;;21.67;16.20;;;;;;;;;;5067804;28;20424;-74
2023/01/24 02:40:25;;;;;;;20.70;16.40;;;;;;;;;;5074153;28;20479;-75
2023/01/24 02:42:53;;;;;;;21.00;16.43;;;;;;;;;;5060804;28;20454;-74
2023/01/24 02:45:23;;;;;;;21.20;17.00;;;;;;;;;;5078678;28;20493;-75
2023/01/24 02:47:51;;;;;;;19.13;15.67;;;;;;;;;;5078509;28;20436;-75
2023/01/24 02:50:19;;;;;;;20.37;16.10;;;;;;;;;;5071454;28;20463;-75
2023/01/24 02:55:31;;;;;;;21.87;17.07;;;;;;;;;;5077054;28;20471;-75
2023/01/24 02:58:06;;;;;;;21.27;17.47;;;;;;;;;;5074350;28;20448;-75
2023/01/24 03:00:35;;;;;;;18.87;15.57;;;;;;;;;;5073441;28;20510;-74
2023/01/24 03:03:02;;;;;;;19.20;15.30;;;;;;;;;;5073024;28;20441;-74
2023/01/24 03:05:39;;;;;;;20.57;14.23;;;;;;;;;;5073832;28;20444;-75
2023/01/24 03:08:07;;;;;;;22.43;15.50;;;;;;;;;;5073518;28;20469;-75
2023/01/24 03:10:34;;;;;;;19.50;16.07;;;;;;;;;;5073383;28;20859;-75
2023/01/24 03:35:02;;;;;;;23.33;16.80;;;;;;;;;;5053770;28;20567;-74
2023/01/24 03:40:15;;;;;;;22.10;17.20;;;;;;;;;;5059083;28;20443;-76
2023/01/24 03:42:47;;;;;;;20.27;17.07;;;;;;;;;;5058638;28;20453;-74
2023/01/24 03:45:16;;;;;;;20.67;16.60;;;;;;;;;;5055753;28;20441;-75
2023/01/24 03:47:54;;;;;;;23.60;17.57;;;;;;;;;;5052723;28;20453;-76
2023/01/24 03:53:06;;;;;;;21.93;17.03;;;;;;;;;;5062164;28;20446;-75
2023/01/24 03:55:33;;;;;;;21.50;17.10;;;;;;;;;;5072950;28;20449;-74
2023/01/24 03:58:00;;;;;;;22.60;17.10;;;;;;;;;;5072640;28;20455;-74
2023/01/24 04:00:27;;;;;;;22.90;16.20;;;;;;;;;;5072409;28;20483;-76
2023/01/24 04:02:56;;;;;;;22.13;16.53;;;;;;;;;;5071145;28;20446;-75
2023/01/24 04:05:23;;;;;;;22.10;17.63;;;;;;;;;;5072238;28;20446;-75
2023/01/24 04:07:50;;;;;;;22.80;17.00;;;;;;;;;;5073736;28;20448;-75
2023/01/24 04:10:17;;;;;;;20.10;17.20;;;;;;;;;;5072697;28;20465;-75
2023/01/24 04:12:45;;;;;;;23.90;18.50;;;;;;;;;;5071897;28;20459;-75
2023/01/24 04:15:16;;;;;;;21.90;17.10;;;;;;;;;;5075898;28;20451;-74
2023/01/24 04:17:43;;;;;;;21.40;16.40;;;;;;;;;;5087791;28;20444;-75
2023/01/24 04:20:12;;;;;;;22.97;17.43;;;;;;;;;;5089043;28;20986;-74
2023/01/24 04:22:39;;;;;;;21.73;16.20;;;;;;;;;;5086299;28;20503;-74
2023/01/24 04:25:06;;;;;;;22.53;17.63;;;;;;;;;;5077691;28;20447;-75
2023/01/24 04:27:33;;;;;;;22.50;17.03;;;;;;;;;;5072894;28;20479;-75
2023/01/24 04:30:00;;;;;;;22.73;17.13;;;;;;;;;;5072547;28;20459;-75
2023/01/24 04:32:27;;;;;;;21.27;16.63;;;;;;;;;;5071788;28;20907;-75
2023/01/24 04:34:54;;;;;;;23.97;16.53;;;;;;;;;;5071939;28;20442;-75
2023/01/24 04:37:23;;;;;;;21.63;15.90;;;;;;;;;;5071669;28;20564;-75
2023/01/24 04:39:50;;;;;;;24.10;17.03;;;;;;;;;;5071285;28;20459;-75
2023/01/24 04:42:17;;;;;;;20.70;16.57;;;;;;;;;;5070909;28;20855;-75
2023/01/24 04:44:44;;;;;;;22.30;17.17;;;;;;;;;;5070600;28;20543;-75
2023/01/24 04:47:11;;;;;;;21.77;16.07;;;;;;;;;;5071079;28;20461;-75
2023/01/24 04:49:38;;;;;;;22.13;17.70;;;;;;;;;;5071152;28;20466;-74
2023/01/24 04:52:05;;;;;;;25.97;16.87;;;;;;;;;;5071280;28;20526;-74
2023/01/24 04:54:34;;;;;;;21.30;17.13;;;;;;;;;;5070570;28;20447;-74
2023/01/24 04:57:01;;;;;;;21.47;17.17;;;;;;;;;;5070897;28;20434;-74
2023/01/24 04:59:28;;;;;;;22.63;16.70;;;;;;;;;;5071132;28;20976;-72
2023/01/24 05:01:55;;;;;;;21.37;16.93;;;;;;;;;;5071792;28;20479;-75
2023/01/24 05:04:22;;;;;;;22.80;17.23;;;;;;;;;;5070649;28;20467;-75
2023/01/24 05:06:51;;;;;;;24.00;18.07;;;;;;;;;;5070431;28;20814;-75
2023/01/24 05:09:18;;;;;;;22.23;17.43;;;;;;;;;;5070317;28;20471;-74
2023/01/24 05:11:46;;;;;;;24.07;17.60;;;;;;;;;;5070855;28;20447;-75
2023/01/24 05:14:14;;;;;;;25.90;17.80;;;;;;;;;;5070177;28;20443;-74
2023/01/24 05:16:41;;;;;;;25.07;17.50;;;;;;;;;;5070777;28;20514;-74
2023/01/24 05:19:08;;;;;;;23.50;18.10;;;;;;;;;;5070734;28;20897;-76
2023/01/24 05:21:35;;;;;;;23.27;17.60;;;;;;;;;;5070864;28;20483;-76
2023/01/24 05:24:02;;;;;;;24.23;17.63;;;;;;;;;;5070989;28;20473;-75
2023/01/24 05:26:29;;;;;;;25.90;19.67;;;;;;;;;;5071458;28;20448;-75
2023/01/24 05:28:57;;;;;;;24.60;17.37;;;;;;;;;;5070982;28;20485;-74
2023/01/24 05:31:24;;;;;;;25.97;17.37;;;;;;;;;;5071235;28;20443;-74
2023/01/24 05:33:51;;;;;;;23.03;18.00;;;;;;;;;;5070614;28;20451;-75
2023/01/24 05:36:20;;;;;;;24.93;18.00;;;;;;;;;;5071167;28;20440;-75
2023/01/24 05:38:47;;;;;;;24.17;17.43;;;;;;;;;;5070511;28;20441;-75
2023/01/24 05:41:15;;;;;;;23.90;17.83;;;;;;;;;;5070908;28;20487;-75
2023/01/24 05:43:43;;;;;;;21.97;17.43;;;;;;;;;;5070953;28;20450;-75
2023/01/24 05:46:13;;;;;;;26.50;18.10;;;;;;;;;;5071594;28;20453;-76
2023/01/24 05:48:40;;;;;;;26.00;18.30;;;;;;;;;;5070649;28;20435;-74
2023/01/24 05:51:08;;;;;;;25.50;19.17;;;;;;;;;;5070137;28;20442;-75
2023/01/24 05:53:37;;;;;;;29.40;20.10;;;;;;;;;;5069716;28;20924;-76
2023/01/24 05:56:05;;;;;;;24.93;18.77;;;;;;;;;;5069767;28;20500;-75
2023/01/24 05:58:34;;;;;;;28.17;19.17;;;;;;;;;;5070057;28;20463;-74
2023/01/24 06:01:01;;;;;;;27.80;20.27;;;;;;;;;;5069905;28;20484;-74
2023/01/24 06:03:29;;;;;;;26.50;17.97;;;;;;;;;;5070051;28;20455;-75
2023/01/24 06:05:56;;;;;;;27.50;19.70;;;;;;;;;;5069388;28;20448;-75
2023/01/24 06:08:23;;;;;;;24.40;18.73;;;;;;;;;;5069274;28;20463;-75
2023/01/24 06:10:51;;;;;;;26.40;19.43;;;;;;;;;;5069445;28;20459;-76
2023/01/24 06:13:18;;;;;;;26.70;20.27;;;;;;;;;;5069068;28;20439;-76
2023/01/24 06:15:45;;;;;;;29.17;20.80;;;;;;;;;;5060293;28;20455;-76
2023/01/24 06:18:15;;;;;;;29.57;21.20;;;;;;;;;;5049083;28;20453;-75
2023/01/24 06:20:44;;;;;;;31.03;21.00;;;;;;;;;;5048673;28;20472;-76
2023/01/24 06:23:16;;;;;;;26.70;19.90;;;;;;;;;;5049040;28;20488;-75
2023/01/24 06:25:44;;;;;;;26.97;20.40;;;;;;;;;;5049461;28;20445;-75
2023/01/24 06:28:11;;;;;;;26.27;19.70;;;;;;;;;;5052279;28;20551;-75
2023/01/24 06:30:41;;;;;;;24.70;17.63;;;;;;;;;;5053110;28;20506;-75
2023/01/24 06:33:18;;;;;;;31.73;20.33;;;;;;;;;;5052404;28;20440;-75
2023/01/24 06:35:51;;;;;;;27.43;19.13;;;;;;;;;;5053196;28;20460;-74
2023/01/24 06:38:20;;;;;;;28.03;19.60;;;;;;;;;;5053046;28;20813;-75
2023/01/24 06:40:48;;;;;;;27.50;19.20;;;;;;;;;;5052817;28;20588;-75
2023/01/24 06:43:15;;;;;;;26.03;18.60;;;;;;;;;;5053028;28;20495;-75
2023/01/24 06:45:42;;;;;;;27.63;19.93;;;;;;;;;;5053202;28;20457;-75
2023/01/24 06:48:09;;;;;;;26.00;18.83;;;;;;;;;;5052882;28;20452;-76
2023/01/24 06:50:36;;;;;;;28.67;20.23;;;;;;;;;;5058844;28;20491;-75
2023/01/24 06:53:05;;;;;;;28.97;19.60;;;;;;;;;;5055821;28;20559;-75
2023/01/24 06:55:32;;;;;;;27.33;20.20;;;;;;;;;;5057464;28;20448;-75
2023/01/24 06:58:00;;;;;;;29.77;19.90;;;;;;;;;;5053827;28;20445;-75
2023/01/24 07:00:28;;;;;;;26.67;19.87;;;;;;;;;;5052486;28;20469;-75
2023/01/24 07:02:58;;;;;;;28.13;19.03;;;;;;;;;;5052279;28;20470;-75
2023/01/24 07:05:26;;;;;;;27.47;19.13;;;;;;;;;;5052607;28;20481;-75
2023/01/24 07:07:53;;;;;;;27.17;18.30;;;;;;;;;;5052847;28;20462;-75
2023/01/24 07:10:21;;;;;;;26.30;18.80;;;;;;;;;;5052875;28;20466;-74
2023/01/24 07:12:48;;;;;;;27.23;18.57;;;;;;;;;;5053422;28;20939;-75
2023/01/24 07:15:15;;;;;;;26.83;18.73;;;;;;;;;;5052951;28;20526;-74
2023/01/24 07:17:43;;;;;;;25.20;18.10;;;;;;;;;;5053024;28;20447;-75
2023/01/24 07:20:10;;;;;;;27.97;19.87;;;;;;;;;;5052618;28;20471;-75
2023/01/24 07:22:38;;;;;;;26.73;20.20;;;;;;;;;;5052055;28;20479;-75
2023/01/24 07:25:05;;;;;;;26.03;19.20;;;;;;;;;;5052190;28;20822;-75
2023/01/24 07:27:34;;;;;;;27.27;20.40;;;;;;;;;;5052707;28;20515;-75
2023/01/24 07:30:01;;;;;;;26.67;18.80;;;;;;;;;;5052072;28;21002;-75
2023/01/24 07:32:28;;;;;;;26.90;19.17;;;;;;;;;;5051975;28;20452;-75
2023/01/24 07:34:55;;;;;;;26.60;18.60;;;;;;;;;;5052041;28;20467;-75
2023/01/24 07:37:23;;;;;;;31.73;20.80;;;;;;;;;;5052105;28;20443;-76
2023/01/24 07:39:50;;;;;;;26.60;19.57;;;;;;;;;;5052108;28;20532;-76
2023/01/24 07:42:17;;;;;;;26.60;20.17;;;;;;;;;;5051965;28;20490;-75
2023/01/24 07:44:45;;;;;;;29.93;20.00;;;;;;;;;;5051749;28;20451;-75
2023/01/24 07:47:12;;;;;;;27.30;19.37;;;;;;;;;;5051881;28;20450;-75
2023/01/24 07:49:39;;;;;;;26.03;19.23;;;;;;;;;;5051570;28;20461;-75
2023/01/24 07:52:06;;;;;;;25.47;18.10;;;;;;;;;;5067853;28;20935;-76
2023/01/24 07:54:35;;;;;;;27.90;20.27;;;;;;;;;;5071688;28;20518;-75
2023/01/24 07:57:03;;;;;;;28.53;18.27;;;;;;;;;;5071733;28;20443;-75
2023/01/24 07:59:30;;;;;;;25.67;19.13;;;;;;;;;;5071951;28;20459;-75
2023/01/24 08:01:58;;;;;;;27.83;20.67;;;;;;;;;;5071689;28;20482;-76
2023/01/24 08:04:25;;;;;;;30.63;20.40;;;;;;;;;;5071467;28;20551;-74
2023/01/24 08:09:37;;;;;;;26.20;18.13;;;;;;;;;;5071335;28;21008;-75
2023/01/24 08:12:04;;;;;;;29.03;20.17;;;;;;;;;;5071334;28;20443;-76
2023/01/24 08:14:31;;;;;;;25.20;17.77;;;;;;;;;;5071505;28;20447;-75
2023/01/24 08:16:59;;;;;;;26.70;18.87;;;;;;;;;;5055979;28;20445;-75
2023/01/24 08:19:26;;;;;;;27.17;19.20;;;;;;;;;;5055856;28;20888;-76
2023/01/24 08:21:53;;;;;;;29.97;19.23;;;;;;;;;;5052834;28;20480;-75
2023/01/24 08:24:20;;;;;;;24.67;17.70;;;;;;;;;;5051562;28;20445;-75
2023/01/24 08:26:48;;;;;;;24.60;18.73;;;;;;;;;;5051636;28;20982;-74
2023/01/24 08:29:15;;;;;;;24.70;18.50;;;;;;;;;;5051548;28;20511;-74
2023/01/24 08:31:42;;;;;;;24.97;18.13;;;;;;;;;;5053098;28;20432;-75
2023/01/24 08:34:11;;;;;;;24.30;18.60;;;;;;;;;;5052148;28;20452;-75
2023/01/24 08:36:38;;;;;;;27.20;18.37;;;;;;;;;;5051493;28;20452;-75
2023/01/24 08:39:06;;;;;;;28.23;20.13;;;;;;;;;;5052685;28;20480;-74
2023/01/24 08:41:33;;;;;;;24.87;18.20;;;;;;;;;;5052208;28;20454;-75
2023/01/24 08:44:02;;;;;;;23.90;17.97;;;;;;;;;;5050515;28;20520;-76
2023/01/24 08:46:29;;;;;;;26.90;18.23;;;;;;;;;;5050841;28;20456;-76
2023/01/24 08:48:56;;;;;;;27.20;18.37;;;;;;;;;;5051061;28;20477;-75
2023/01/24 08:51:25;;;;;;;26.30;19.10;;;;;;;;;;5051351;28;20451;-75
2023/01/24 08:53:52;;;;;;;26.73;19.07;;;;;;;;;;5051466;28;20933;-75
2023/01/24 08:56:19;;;;;;;33.90;22.40;;;;;;;;;;5051448;28;20766;-75
2023/01/24 08:58:46;;;;;;;26.40;19.20;;;;;;;;;;5050643;28;20444;-75
2023/01/24 09:01:13;;;;;;;26.40;19.30;;;;;;;;;;5050490;28;20994;-74
2023/01/24 09:03:40;;;;;;;25.80;18.10;;;;;;;;;;5051210;28;20486;-75
2023/01/24 09:06:07;;;;;;;23.93;18.30;;;;;;;;;;5052140;28;20454;-75
2023/01/24 09:08:35;;;;;;;27.00;18.80;;;;;;;;;;5051845;28;20938;-75
2023/01/24 09:11:02;;;;;;;25.37;19.67;;;;;;;;;;5050765;28;21030;-75
2023/01/24 09:13:31;;;;;;;26.63;18.87;;;;;;;;;;5049925;28;20452;-75
2023/01/24 09:15:58;;;;;;;27.83;18.97;;;;;;;;;;5050244;28;21035;-75
2023/01/24 09:18:25;;;;;;;29.03;19.27;;;;;;;;;;5050429;28;20532;-74
2023/01/24 09:20:52;;;;;;;26.63;18.23;;;;;;;;;;5050381;28;20483;-74
2023/01/24 09:23:19;;;;;;;25.47;18.20;;;;;;;;;;5050509;28;20491;-75
2023/01/24 09:25:52;;;;;;;24.97;18.67;;;;;;;;;;5050388;28;20449;-74
2023/01/24 09:28:20;;;;;;;23.20;16.80;;;;;;;;;;5051055;28;20452;-75
2023/01/24 09:30:47;;;;;;;23.77;17.43;;;;;;;;;;5049956;28;20940;-75
2023/01/24 09:33:15;;;;;;;23.47;17.87;;;;;;;;;;5050651;28;20448;-74
2023/01/24 09:35:42;;;;;;;21.13;16.93;;;;;;;;;;5051038;28;20471;-75
2023/01/24 09:38:09;;;;;;;29.40;19.40;;;;;;;;;;5050313;28;20449;-75
2023/01/24 09:40:42;;;;;;;22.77;17.70;;;;;;;;;;5050484;28;20859;-75
2023/01/24 09:43:15;;;;;;;20.77;16.47;;;;;;;;;;5049557;28;21010;-75
2023/01/24 09:45:44;;;;;;;26.53;19.47;;;;;;;;;;5050104;28;21203;-75
2023/01/24 09:48:13;;;;;;;25.13;18.57;;;;;;;;;;5050363;28;20449;-75
2023/01/24 09:50:43;;;;;;;23.57;18.27;;;;;;;;;;5050273;28;20488;-75
2023/01/24 09:53:14;;;;;;;25.70;17.90;;;;;;;;;;5049978;28;20799;-75
2023/01/24 09:55:42;;;;;;;25.20;18.40;;;;;;;;;;5050105;28;20464;-76
2023/01/24 09:58:18;;;;;;;25.63;17.23;;;;;;;;;;5050080;28;20469;-75
2023/01/24 10:00:46;;;;;;;21.30;16.73;;;;;;;;;;5049888;28;20473;-74
2023/01/24 10:03:15;;;;;;;21.70;15.90;;;;;;;;;;5053064;28;20488;-74
2023/01/24 10:05:47;;;;;;;23.60;16.20;;;;;;;;;;5054866;28;20531;-76
2023/01/24 10:08:19;;;;;;;19.97;15.10;;;;;;;;;;5054982;28;20805;-74
2023/01/24 10:10:47;;;;;;;19.07;14.90;;;;;;;;;;5054844;28;20466;-75
2023/01/24 10:13:27;;;;;;;21.53;15.50;;;;;;;;;;5054198;28;20488;-74
2023/01/24 10:15:58;;;;;;;18.70;15.27;;;;;;;;;;5054017;28;20470;-74
2023/01/24 10:18:32;;;;;;;20.13;15.57;;;;;;;;;;5055268;28;20443;-74
2023/01/24 10:21:08;;;;;;;19.70;14.60;;;;;;;;;;5054795;28;20821;-75
2023/01/24 10:23:37;;;;;;;19.33;14.13;;;;;;;;;;5055423;28;20495;-74
2023/01/24 10:26:06;;;;;;;15.97;13.40;;;;;;;;;;5057150;28;20448;-74
2023/01/24 10:28:38;;;;;;;16.60;13.77;;;;;;;;;;5056405;28;20778;-75
2023/01/24 10:31:07;;;;;;;18.20;13.70;;;;;;;;;;5057105;28;20466;-75
2023/01/24 10:33:36;;;;;;;16.57;13.60;;;;;;;;;;5054841;28;20437;-75
2023/01/24 10:36:07;;;;;;;15.33;12.77;;;;;;;;;;5060106;28;20438;-75
2023/01/24 10:38:34;;;;;;;17.93;12.80;;;;;;;;;;5057343;28;20527;-75
2023/01/24 10:41:14;;;;;;;15.47;13.23;;;;;;;;;;5070759;28;20445;-75
2023/01/24 10:43:44;;;;;;;16.77;13.70;;;;;;;;;;5072665;28;20523;-75
2023/01/24 10:46:18;;;;;;;16.23;13.67;;;;;;;;;;5053141;28;20445;-75
2023/01/24 10:48:46;;;;;;;18.30;14.63;;;;;;;;;;5061879;28;20441;-75
2023/01/24 10:51:15;;;;;;;18.40;13.03;;;;;;;;;;5073349;28;20955;-74
2023/01/24 10:53:42;;;;;;;15.77;13.30;;;;;;;;;;5073430;28;20444;-75
2023/01/24 10:56:09;;;;;;;17.83;12.60;;;;;;;;;;5073206;28;20440;-76
2023/01/24 10:58:38;;;;;;;15.60;12.27;;;;;;;;;;5073520;28;20448;-74
2023/01/24 11:01:09;;;;;;;15.30;12.47;;;;;;;;;;5075100;28;20439;-75
2023/01/24 11:03:40;;;;;;;19.73;17.30;;;;;;;;;;5074403;28;20839;-73
2023/01/24 11:06:20;;;;;;;17.00;13.70;;;;;;;;;;5077138;28;20443;-74
2023/01/24 11:08:47;;;;;;;18.50;14.73;;;;;;;;;;5073984;28;20969;-75
2023/01/24 11:11:21;;;;;;;21.70;17.00;;;;;;;;;;5074302;28;20871;-75
2023/01/24 11:13:48;;;;;;;17.67;14.33;;;;;;;;;;5074499;28;20471;-75
2023/01/24 11:16:22;;;;;;;21.13;16.77;;;;;;;;;;5059523;28;20529;-75
2023/01/24 11:18:52;;;;;;;24.83;17.70;;;;;;;;;;5056276;28;20428;-74
2023/01/24 11:21:20;;;;;;;21.63;16.83;;;;;;;;;;5074456;28;20442;-75
2023/01/24 11:23:59;;;;;;;19.63;16.07;;;;;;;;;;5073262;28;20896;-75
2023/01/24 11:26:27;;;;;;;17.63;14.43;;;;;;;;;;5054638;28;20548;-74
2023/01/24 11:29:01;;;;;;;18.20;13.90;;;;;;;;;;5054209;28;20477;-75
2023/01/24 11:31:31;;;;;;;16.10;12.83;;;;;;;;;;5053613;28;20460;-75
2023/01/24 11:34:08;;;;;;;16.60;12.80;;;;;;;;;;5054177;28;20472;-75
2023/01/24 11:36:40;;;;;;;17.60;13.90;;;;;;;;;;5052161;28;20968;-74
2023/01/24 11:39:13;;;;;;;15.93;13.00;;;;;;;;;;5053011;28;20463;-75
2023/01/24 11:41:45;;;;;;;17.93;13.53;;;;;;;;;;5052144;28;20444;-75
2023/01/24 11:44:21;;;;;;;18.67;13.83;;;;;;;;;;5053751;28;20499;-74
2023/01/24 11:46:52;;;;;;;15.93;12.73;;;;;;;;;;5057741;28;20452;-75
2023/01/24 11:49:31;;;;;;;29.93;14.00;;;;;;;;;;5055426;28;20501;-75
2023/01/24 11:52:01;;;;;;;15.47;13.33;;;;;;;;;;5052964;28;20955;-75
2023/01/24 11:54:36;;;;;;;13.40;11.63;;;;;;;;;;5053852;28;20452;-75
2023/01/24 11:57:04;;;;;;;17.13;13.37;;;;;;;;;;5052713;28;20440;-75
2023/01/24 11:59:42;;;;;;;16.87;13.20;;;;;;;;;;5052055;28;20464;-74
2023/01/24 12:02:34;;;;;;;18.00;12.83;;;;;;;;;;5052071;28;20471;-76
2023/01/24 12:05:22;;;;;;;18.70;13.70;;;;;;;;;;5052348;28;20440;-74
2023/01/24 12:07:54;;;;;;;15.90;12.90;;;;;;;;;;5047055;28;20456;-74
2023/01/24 12:10:26;;;;;;;17.50;13.33;;;;;;;;;;5052321;28;20484;-75
2023/01/24 12:12:57;;;;;;;15.80;11.70;;;;;;;;;;5051788;28;20852;-75
2023/01/24 12:15:29;;;;;;;19.50;13.40;;;;;;;;;;5052119;28;20441;-75
2023/01/24 12:18:03;;;;;;;17.90;13.90;;;;;;;;;;5052423;28;20443;-75
2023/01/24 12:20:48;;;;;;;14.43;12.70;;;;;;;;;;5052277;28;20492;-75
2023/01/24 12:23:20;;;;;;;18.10;13.07;;;;;;;;;;5051171;28;20519;-75
2023/01/24 12:25:48;;;;;;;15.90;12.30;;;;;;;;;;5050921;28;20451;-75
2023/01/24 12:28:18;;;;;;;18.47;14.00;;;;;;;;;;5060843;28;20444;-74
2023/01/24 12:30:49;;;;;;;17.93;13.13;;;;;;;;;;5071408;28;20818;-75
2023/01/24 12:33:23;;;;;;;16.57;12.50;;;;;;;;;;5071020;28;20494;-75
2023/01/24 12:35:52;;;;;;;15.63;12.67;;;;;;;;;;5069688;28;20458;-75
2023/01/24 12:38:25;;;;;;;14.73;12.43;;;;;;;;;;5070410;28;20436;-75
2023/01/24 12:40:54;;;;;;;15.60;12.87;;;;;;;;;;5071307;28;20464;-75
2023/01/24 12:43:26;;;;;;;15.00;11.97;;;;;;;;;;5071080;28;20474;-75
2023/01/24 12:45:57;;;;;;;14.67;12.30;;;;;;;;;;5072728;28;20455;-75
2023/01/24 12:48:30;;;;;;;14.20;12.30;;;;;;;;;;5066755;28;20469;-74
2023/01/24 12:50:59;;;;;;;17.83;11.70;;;;;;;;;;5065792;28;20497;-75
2023/01/24 12:53:31;;;;;;;14.37;11.87;;;;;;;;;;5075981;28;20445;-75
2023/01/24 12:56:00;;;;;;;17.70;13.57;;;;;;;;;;5075562;28;20470;-75
2023/01/24 12:58:29;;;;;;;13.97;12.43;;;;;;;;;;5075156;28;20444;-75
2023/01/24 13:01:03;;;;;;;21.40;13.20;;;;;;;;;;5075377;28;20986;-75
2023/01/24 13:03:40;;;;;;;24.93;12.60;;;;;;;;;;5071015;28;20479;-75
2023/01/24 13:06:11;;;;;;;15.10;12.20;;;;;;;;;;5070542;28;20858;-75
2023/01/24 13:08:47;;;;;;;17.00;12.87;;;;;;;;;;5070646;28;20460;-75
2023/01/24 13:11:19;;;;;;;15.07;11.97;;;;;;;;;;5071400;28;20452;-75
2023/01/24 13:13:49;;;;;;;15.00;12.17;;;;;;;;;;5070374;28;20963;-74
2023/01/24 13:16:32;;;;;;;14.37;12.97;;;;;;;;;;5070565;28;20448;-75
2023/01/24 13:19:05;;;;;;;13.37;11.30;;;;;;;;;;5070348;28;20461;-74
2023/01/24 13:21:36;;;;;;;16.63;12.47;;;;;;;;;;5070249;28;20920;-75
2023/01/24 13:24:21;;;;;;;14.60;12.80;;;;;;;;;;5070192;28;20475;-74
2023/01/24 13:26:55;;;;;;;12.97;11.60;;;;;;;;;;5069668;28;20444;-74
2023/01/24 13:29:31;;;;;;;14.77;12.70;;;;;;;;;;5070380;28;20461;-75
2023/01/24 13:32:06;;;;;;;14.90;11.97;;;;;;;;;;5070488;28;20443;-75
2023/01/24 13:34:36;;;;;;;17.60;12.63;;;;;;;;;;5070795;28;20881;-75
2023/01/24 13:37:03;;;;;;;13.30;11.83;;;;;;;;;;5070595;28;20471;-75
2023/01/24 13:39:31;;;;;;;19.27;12.33;;;;;;;;;;5070685;28;20473;-75
2023/01/24 13:42:04;;;;;;;13.80;12.30;;;;;;;;;;5070984;28;20448;-74
2023/01/24 13:44:33;;;;;;;18.57;12.80;;;;;;;;;;5070688;28;20486;-74
2023/01/24 13:47:01;;;;;;;15.13;12.03;;;;;;;;;;5071121;28;20455;-74
2023/01/24 13:49:39;;;;;;;13.47;12.07;;;;;;;;;;5070614;28;20496;-75
2023/01/24 13:52:28;;;;;;;15.20;11.10;;;;;;;;;;5070355;28;20550;-74
2023/01/24 13:54:55;;;;;;;13.53;11.57;;;;;;;;;;5070271;28;20444;-74
2023/01/24 13:57:26;;;;;;;13.60;11.80;;;;;;;;;;5081699;28;20439;-74
2023/01/24 14:00:08;;;;;;;14.13;11.93;;;;;;;;;;5079076;28;20502;-75
2023/01/24 14:02:38;;;;;;;14.03;12.40;;;;;;;;;;5072841;28;20948;-76
2023/01/24 14:05:26;;;;;;;14.23;11.87;;;;;;;;;;5073426;28;20477;-74
2023/01/24 14:07:53;;;;;;;18.13;12.90;;;;;;;;;;5076875;28;20466;-74
2023/01/24 14:10:20;;;;;;;17.17;12.03;;;;;;;;;;5073310;28;20496;-75
2023/01/24 14:12:54;;;;;;;15.27;11.60;;;;;;;;;;5069862;28;20457;-75
2023/01/24 14:15:26;;;;;;;14.17;11.40;;;;;;;;;;5069588;28;20950;-74
2023/01/24 14:17:53;;;;;;;16.93;12.13;;;;;;;;;;5070331;28;20451;-74
2023/01/24 14:20:31;;;;;;;16.90;11.73;;;;;;;;;;5070128;28;20467;-74
2023/01/24 14:23:00;;;;;;;14.83;11.57;;;;;;;;;;5071403;28;20615;-74
2023/01/24 14:25:35;;;;;;;13.03;10.80;;;;;;;;;;5070795;28;20545;-74
2023/01/24 14:28:03;;;;;;;17.07;12.93;;;;;;;;;;5069736;28;20844;-74
2023/01/24 14:30:36;;;;;;;15.97;12.00;;;;;;;;;;5069545;28;20960;-75
2023/01/24 14:33:06;;;;;;;15.50;11.93;;;;;;;;;;5069624;28;20474;-74
2023/01/24 14:35:36;;;;;;;14.20;12.03;;;;;;;;;;5069777;28;20475;-74
2023/01/24 14:38:15;;;;;;;15.00;12.07;;;;;;;;;;5069573;28;20453;-75
2023/01/24 14:40:42;;;;;;;14.63;12.60;;;;;;;;;;5069254;28;20471;-74
2023/01/24 14:43:13;;;;;;;12.70;11.43;;;;;;;;;;5069651;28;20459;-74
2023/01/24 14:45:42;;;;;;;14.40;11.13;;;;;;;;;;5069045;28;20501;-75
2023/01/24 14:48:10;;;;;;;17.20;13.17;;;;;;;;;;5070991;28;20455;-75
2023/01/24 14:50:39;;;;;;;15.30;12.33;;;;;;;;;;5073317;28;20470;-74
2023/01/24 14:53:21;;;;;;;13.07;10.97;;;;;;;;;;5073834;28;20457;-75
2023/01/24 14:55:48;;;;;;;13.43;11.97;;;;;;;;;;5074015;28;20449;-74
2023/01/24 14:58:17;;;;;;;13.10;10.43;;;;;;;;;;5074340;28;20443;-75
2023/01/24 15:00:44;;;;;;;14.97;12.57;;;;;;;;;;5074136;28;20473;-75
2023/01/24 15:03:15;;;;;;;15.20;11.17;;;;;;;;;;5072575;28;20451;-75
2023/01/24 15:05:49;;;;;;;14.20;12.77;;;;;;;;;;5073047;28;20506;-74